sensor_id;sensor_type;location;lat;lon;timestamp;temperature;humidity
51035;DHT22;37062;52.546;13.230;2023-07-20T00:00:11;19.80;99.90
51035;DHT22;37062;52.546;13.230;2023-07-20T00:02:42;19.80;99.90
51035;DHT22;37062;52.546;13.230;2023-07-20T00:05:11;19.80;99.90
51035;DHT22;37062;52.546;13.230;2023-07-20T00:07:40;19.80;99.90
51035;DHT22;37062;52.546;13.230;2023-07-20T00:10:08;19.70;99.90
51035;DHT22;37062;52.546;13.230;2023-07-20T00:12:37;19.70;99.90
51035;DHT22;37062;52.546;13.230;2023-07-20T00:15:05;19.70;99.90
51035;DHT22;37062;52.546;13.230;2023-07-20T00:17:34;19.70;99.90
51035;DHT22;37062;52.546;13.230;2023-07-20T00:20:07;19.60;99.90
51035;DHT22;37062;52.546;13.230;2023-07-20T00:22:36;19.50;99.90
51035;DHT22;37062;52.546;13.230;2023-07-20T00:25:05;19.50;99.90
51035;DHT22;37062;52.546;13.230;2023-07-20T00:27:33;19.50;99.90
51035;DHT22;37062;52.546;13.230;2023-07-20T00:30:01;19.40;99.90
51035;DHT22;37062;52.546;13.230;2023-07-20T00:32:36;19.40;99.90
51035;DHT22;37062;52.546;13.230;2023-07-20T00:35:27;19.40;99.90
51035;DHT22;37062;52.546;13.230;2023-07-20T00:38:12;19.40;99.90
51035;DHT22;37062;52.546;13.230;2023-07-20T00:41:10;19.30;99.90
51035;DHT22;37062;52.546;13.230;2023-07-20T00:44:03;19.30;99.90
51035;DHT22;37062;52.546;13.230;2023-07-20T00:46:53;19.30;99.90
51035;DHT22;37062;52.546;13.230;2023-07-20T00:49:29;19.20;99.90
51035;DHT22;37062;52.546;13.230;2023-07-20T00:52:25;19.20;99.90
51035;DHT22;37062;52.546;13.230;2023-07-20T00:55:12;19.20;99.90
51035;DHT22;37062;52.546;13.230;2023-07-20T00:58:02;19.20;99.90
51035;DHT22;37062;52.546;13.230;2023-07-20T01:00:51;19.20;99.90
51035;DHT22;37062;52.546;13.230;2023-07-20T01:03:49;19.10;99.90
51035;DHT22;37062;52.546;13.230;2023-07-20T01:06:44;19.10;99.90
51035;DHT22;37062;52.546;13.230;2023-07-20T01:10:03;19.00;99.90
51035;DHT22;37062;52.546;13.230;2023-07-20T01:13:11;19.00;99.90
51035;DHT22;37062;52.546;13.230;2023-07-20T01:16:09;18.90;99.90
51035;DHT22;37062;52.546;13.230;2023-07-20T01:19:12;18.90;99.90
51035;DHT22;37062;52.546;13.230;2023-07-20T01:22:21;18.80;99.90
51035;DHT22;37062;52.546;13.230;2023-07-20T01:28:35;18.80;99.90
51035;DHT22;37062;52.546;13.230;2023-07-20T01:31:30;18.80;99.90
51035;DHT22;37062;52.546;13.230;2023-07-20T01:34:10;18.80;99.90
51035;DHT22;37062;52.546;13.230;2023-07-20T01:36:52;18.70;99.90
51035;DHT22;37062;52.546;13.230;2023-07-20T01:39:26;18.70;99.90
51035;DHT22;37062;52.546;13.230;2023-07-20T01:41:58;18.70;99.90
51035;DHT22;37062;52.546;13.230;2023-07-20T01:44:29;18.60;99.90
51035;DHT22;37062;52.546;13.230;2023-07-20T01:47:01;18.60;99.90
51035;DHT22;37062;52.546;13.230;2023-07-20T01:49:36;18.60;99.90
51035;DHT22;37062;52.546;13.230;2023-07-20T01:52:06;18.60;99.90
51035;DHT22;37062;52.546;13.230;2023-07-20T01:54:34;18.60;99.90
51035;DHT22;37062;52.546;13.230;2023-07-20T01:57:05;18.60;99.90
51035;DHT22;37062;52.546;13.230;2023-07-20T01:59:35;18.60;99.90
51035;DHT22;37062;52.546;13.230;2023-07-20T02:02:09;18.60;99.90
51035;DHT22;37062;52.546;13.230;2023-07-20T02:04:38;18.60;99.90
51035;DHT22;37062;52.546;13.230;2023-07-20T02:07:07;18.50;99.90
51035;DHT22;37062;52.546;13.230;2023-07-20T02:09:36;18.50;99.90
51035;DHT22;37062;52.546;13.230;2023-07-20T02:12:08;18.50;99.90
51035;DHT22;37062;52.546;13.230;2023-07-20T02:14:37;18.50;99.90
51035;DHT22;37062;52.546;13.230;2023-07-20T02:17:05;18.50;99.90
51035;DHT22;37062;52.546;13.230;2023-07-20T02:19:35;18.50;99.90
51035;DHT22;37062;52.546;13.230;2023-07-20T02:22:04;18.60;99.90
51035;DHT22;37062;52.546;13.230;2023-07-20T02:24:33;18.60;99.90
51035;DHT22;37062;52.546;13.230;2023-07-20T02:27:01;18.60;99.90
51035;DHT22;37062;52.546;13.230;2023-07-20T02:29:29;18.50;99.90
51035;DHT22;37062;52.546;13.230;2023-07-20T02:31:57;18.50;99.90
51035;DHT22;37062;52.546;13.230;2023-07-20T02:34:25;18.60;99.90
51035;DHT22;37062;52.546;13.230;2023-07-20T02:36:55;18.60;99.90
51035;DHT22;37062;52.546;13.230;2023-07-20T02:39:25;18.50;99.90
51035;DHT22;37062;52.546;13.230;2023-07-20T02:41:54;18.60;99.90
51035;DHT22;37062;52.546;13.230;2023-07-20T02:44:22;18.60;99.90
51035;DHT22;37062;52.546;13.230;2023-07-20T02:46:51;18.60;99.90
51035;DHT22;37062;52.546;13.230;2023-07-20T02:49:19;18.60;99.90
51035;DHT22;37062;52.546;13.230;2023-07-20T02:51:47;18.70;99.90
51035;DHT22;37062;52.546;13.230;2023-07-20T02:54:17;18.60;99.90
51035;DHT22;37062;52.546;13.230;2023-07-20T02:56:45;18.50;99.90
51035;DHT22;37062;52.546;13.230;2023-07-20T02:59:13;18.40;99.90
51035;DHT22;37062;52.546;13.230;2023-07-20T03:01:42;18.50;99.90
51035;DHT22;37062;52.546;13.230;2023-07-20T03:04:10;18.40;99.90
51035;DHT22;37062;52.546;13.230;2023-07-20T03:06:38;18.50;99.90
51035;DHT22;37062;52.546;13.230;2023-07-20T03:09:07;18.60;99.90
51035;DHT22;37062;52.546;13.230;2023-07-20T03:11:37;18.60;99.90
51035;DHT22;37062;52.546;13.230;2023-07-20T03:14:06;18.70;99.90
51035;DHT22;37062;52.546;13.230;2023-07-20T03:16:34;18.70;99.90
51035;DHT22;37062;52.546;13.230;2023-07-20T03:19:02;18.70;99.90
51035;DHT22;37062;52.546;13.230;2023-07-20T03:21:31;18.70;99.90
51035;DHT22;37062;52.546;13.230;2023-07-20T03:23:59;18.60;99.90
51035;DHT22;37062;52.546;13.230;2023-07-20T03:26:28;18.50;99.90
51035;DHT22;37062;52.546;13.230;2023-07-20T03:28:58;18.60;99.90
51035;DHT22;37062;52.546;13.230;2023-07-20T03:31:26;18.50;99.90
51035;DHT22;37062;52.546;13.230;2023-07-20T03:33:55;18.50;99.90
51035;DHT22;37062;52.546;13.230;2023-07-20T03:36:23;18.50;99.90
51035;DHT22;37062;52.546;13.230;2023-07-20T03:38:52;18.40;99.90
51035;DHT22;37062;52.546;13.230;2023-07-20T03:41:20;18.40;99.90
51035;DHT22;37062;52.546;13.230;2023-07-20T03:43:49;18.40;99.90
51035;DHT22;37062;52.546;13.230;2023-07-20T03:46:19;18.40;99.90
51035;DHT22;37062;52.546;13.230;2023-07-20T03:48:47;18.40;99.90
51035;DHT22;37062;52.546;13.230;2023-07-20T03:51:16;18.40;99.90
51035;DHT22;37062;52.546;13.230;2023-07-20T03:53:44;18.50;99.90
51035;DHT22;37062;52.546;13.230;2023-07-20T03:56:12;18.50;99.90
51035;DHT22;37062;52.546;13.230;2023-07-20T03:58:40;18.40;99.90
51035;DHT22;37062;52.546;13.230;2023-07-20T04:01:08;18.40;99.90
51035;DHT22;37062;52.546;13.230;2023-07-20T04:03:38;18.40;99.90
51035;DHT22;37062;52.546;13.230;2023-07-20T04:06:06;18.40;99.90
51035;DHT22;37062;52.546;13.230;2023-07-20T04:08:35;18.60;99.90
51035;DHT22;37062;52.546;13.230;2023-07-20T04:11:04;18.60;99.90
51035;DHT22;37062;52.546;13.230;2023-07-20T04:13:32;18.50;99.90
51035;DHT22;37062;52.546;13.230;2023-07-20T04:16:01;18.50;99.90
51035;DHT22;37062;52.546;13.230;2023-07-20T04:18:29;18.60;99.90
51035;DHT22;37062;52.546;13.230;2023-07-20T04:20:59;18.50;99.90
51035;DHT22;37062;52.546;13.230;2023-07-20T04:23:27;18.50;99.90
51035;DHT22;37062;52.546;13.230;2023-07-20T04:25:56;18.50;99.90
51035;DHT22;37062;52.546;13.230;2023-07-20T04:28:24;18.50;99.90
51035;DHT22;37062;52.546;13.230;2023-07-20T04:30:52;18.50;99.90
51035;DHT22;37062;52.546;13.230;2023-07-20T04:33:21;18.50;99.90
51035;DHT22;37062;52.546;13.230;2023-07-20T04:35:51;18.50;99.90
51035;DHT22;37062;52.546;13.230;2023-07-20T04:38:34;18.50;99.90
51035;DHT22;37062;52.546;13.230;2023-07-20T04:41:22;18.60;99.90
51035;DHT22;37062;52.546;13.230;2023-07-20T04:43:54;18.60;99.90
51035;DHT22;37062;52.546;13.230;2023-07-20T04:46:28;18.50;99.90
51035;DHT22;37062;52.546;13.230;2023-07-20T04:48:58;18.50;99.90
51035;DHT22;37062;52.546;13.230;2023-07-20T04:51:28;18.50;99.90
51035;DHT22;37062;52.546;13.230;2023-07-20T04:53:59;18.70;99.90
51035;DHT22;37062;52.546;13.230;2023-07-20T04:56:31;18.70;99.90
51035;DHT22;37062;52.546;13.230;2023-07-20T04:59:01;18.70;99.90
51035;DHT22;37062;52.546;13.230;2023-07-20T05:01:29;18.80;99.90
51035;DHT22;37062;52.546;13.230;2023-07-20T05:03:57;19.00;99.90
51035;DHT22;37062;52.546;13.230;2023-07-20T05:06:26;19.00;99.90
51035;DHT22;37062;52.546;13.230;2023-07-20T05:08:54;19.10;99.90
51035;DHT22;37062;52.546;13.230;2023-07-20T05:11:24;19.10;99.90
51035;DHT22;37062;52.546;13.230;2023-07-20T05:13:52;19.20;99.90
51035;DHT22;37062;52.546;13.230;2023-07-20T05:16:20;19.10;99.90
51035;DHT22;37062;52.546;13.230;2023-07-20T05:18:49;19.20;99.90
51035;DHT22;37062;52.546;13.230;2023-07-20T05:21:18;19.10;99.90
51035;DHT22;37062;52.546;13.230;2023-07-20T05:23:46;19.10;99.90
51035;DHT22;37062;52.546;13.230;2023-07-20T05:26:15;19.20;99.90
51035;DHT22;37062;52.546;13.230;2023-07-20T05:28:45;19.30;99.90
51035;DHT22;37062;52.546;13.230;2023-07-20T05:31:13;19.40;99.90
51035;DHT22;37062;52.546;13.230;2023-07-20T05:33:41;19.50;99.90
51035;DHT22;37062;52.546;13.230;2023-07-20T05:36:09;19.70;99.90
51035;DHT22;37062;52.546;13.230;2023-07-20T05:38:37;19.80;99.90
51035;DHT22;37062;52.546;13.230;2023-07-20T05:41:05;19.80;99.90
51035;DHT22;37062;52.546;13.230;2023-07-20T05:43:37;19.60;99.90
51035;DHT22;37062;52.546;13.230;2023-07-20T05:46:06;19.60;99.90
51035;DHT22;37062;52.546;13.230;2023-07-20T05:48:34;19.60;99.90
51035;DHT22;37062;52.546;13.230;2023-07-20T05:51:03;19.70;99.90
51035;DHT22;37062;52.546;13.230;2023-07-20T05:53:31;19.80;99.90
51035;DHT22;37062;52.546;13.230;2023-07-20T05:55:59;19.80;99.90
51035;DHT22;37062;52.546;13.230;2023-07-20T05:58:28;19.80;99.90
51035;DHT22;37062;52.546;13.230;2023-07-20T06:00:56;19.70;99.90
51035;DHT22;37062;52.546;13.230;2023-07-20T06:03:26;19.80;99.90
51035;DHT22;37062;52.546;13.230;2023-07-20T06:05:58;19.80;99.90
51035;DHT22;37062;52.546;13.230;2023-07-20T06:08:28;19.70;99.90
51035;DHT22;37062;52.546;13.230;2023-07-20T06:10:56;19.80;99.90
51035;DHT22;37062;52.546;13.230;2023-07-20T06:13:24;19.80;99.90
51035;DHT22;37062;52.546;13.230;2023-07-20T06:15:53;20.00;99.90
51035;DHT22;37062;52.546;13.230;2023-07-20T06:18:22;20.00;99.90
51035;DHT22;37062;52.546;13.230;2023-07-20T06:20:52;20.00;99.90
51035;DHT22;37062;52.546;13.230;2023-07-20T06:23:21;20.20;99.90
51035;DHT22;37062;52.546;13.230;2023-07-20T06:25:49;20.30;99.90
51035;DHT22;37062;52.546;13.230;2023-07-20T06:28:17;20.30;99.90
51035;DHT22;37062;52.546;13.230;2023-07-20T06:30:46;20.20;99.90
51035;DHT22;37062;52.546;13.230;2023-07-20T06:33:15;20.20;99.90
51035;DHT22;37062;52.546;13.230;2023-07-20T06:35:43;20.30;99.90
51035;DHT22;37062;52.546;13.230;2023-07-20T06:38:12;20.50;99.90
51035;DHT22;37062;52.546;13.230;2023-07-20T06:40:45;20.70;99.90
51035;DHT22;37062;52.546;13.230;2023-07-20T06:43:13;21.10;99.90
51035;DHT22;37062;52.546;13.230;2023-07-20T06:45:45;21.60;99.90
51035;DHT22;37062;52.546;13.230;2023-07-20T06:48:18;22.10;99.90
51035;DHT22;37062;52.546;13.230;2023-07-20T06:50:46;22.70;99.90
51035;DHT22;37062;52.546;13.230;2023-07-20T06:53:16;22.90;99.90
51035;DHT22;37062;52.546;13.230;2023-07-20T06:55:45;22.90;99.90
51035;DHT22;37062;52.546;13.230;2023-07-20T06:58:18;23.20;99.90
51035;DHT22;37062;52.546;13.230;2023-07-20T07:00:48;23.70;99.90
51035;DHT22;37062;52.546;13.230;2023-07-20T07:03:16;23.80;99.90
51035;DHT22;37062;52.546;13.230;2023-07-20T07:05:44;23.80;99.90
51035;DHT22;37062;52.546;13.230;2023-07-20T07:08:18;23.60;99.90
51035;DHT22;37062;52.546;13.230;2023-07-20T07:10:47;23.50;99.90
51035;DHT22;37062;52.546;13.230;2023-07-20T07:13:15;23.70;99.90
51035;DHT22;37062;52.546;13.230;2023-07-20T07:15:44;23.90;99.90
51035;DHT22;37062;52.546;13.230;2023-07-20T07:18:12;24.00;99.90
51035;DHT22;37062;52.546;13.230;2023-07-20T07:20:40;24.10;99.90
51035;DHT22;37062;52.546;13.230;2023-07-20T07:23:08;24.30;99.90
51035;DHT22;37062;52.546;13.230;2023-07-20T07:25:38;24.50;99.90
51035;DHT22;37062;52.546;13.230;2023-07-20T07:28:07;24.60;99.90
51035;DHT22;37062;52.546;13.230;2023-07-20T07:30:35;24.70;99.90
51035;DHT22;37062;52.546;13.230;2023-07-20T07:33:03;24.80;99.90
51035;DHT22;37062;52.546;13.230;2023-07-20T07:35:31;24.90;99.90
51035;DHT22;37062;52.546;13.230;2023-07-20T07:38:00;24.80;99.90
51035;DHT22;37062;52.546;13.230;2023-07-20T07:40:49;25.00;99.90
51035;DHT22;37062;52.546;13.230;2023-07-20T07:43:17;25.20;99.90
51035;DHT22;37062;52.546;13.230;2023-07-20T07:45:46;25.30;99.90
51035;DHT22;37062;52.546;13.230;2023-07-20T07:48:14;25.40;99.90
51035;DHT22;37062;52.546;13.230;2023-07-20T07:50:42;25.30;99.90
51035;DHT22;37062;52.546;13.230;2023-07-20T07:53:10;25.30;99.90
51035;DHT22;37062;52.546;13.230;2023-07-20T07:55:39;25.20;99.90
51035;DHT22;37062;52.546;13.230;2023-07-20T07:58:09;25.30;99.90
51035;DHT22;37062;52.546;13.230;2023-07-20T08:00:37;25.10;99.90
51035;DHT22;37062;52.546;13.230;2023-07-20T08:03:08;24.90;99.90
51035;DHT22;37062;52.546;13.230;2023-07-20T08:05:36;24.80;99.90
51035;DHT22;37062;52.546;13.230;2023-07-20T08:08:05;24.80;99.90
51035;DHT22;37062;52.546;13.230;2023-07-20T08:10:33;24.80;99.90
51035;DHT22;37062;52.546;13.230;2023-07-20T08:13:01;24.80;99.90
51035;DHT22;37062;52.546;13.230;2023-07-20T08:15:31;24.90;99.90
51035;DHT22;37062;52.546;13.230;2023-07-20T08:17:59;25.00;99.90
51035;DHT22;37062;52.546;13.230;2023-07-20T08:20:27;25.10;99.90
51035;DHT22;37062;52.546;13.230;2023-07-20T08:22:56;25.60;99.90
51035;DHT22;37062;52.546;13.230;2023-07-20T08:25:25;26.10;99.90
51035;DHT22;37062;52.546;13.230;2023-07-20T08:27:53;26.20;99.90
51035;DHT22;37062;52.546;13.230;2023-07-20T08:30:21;26.10;99.90
51035;DHT22;37062;52.546;13.230;2023-07-20T08:32:52;26.20;99.90
51035;DHT22;37062;52.546;13.230;2023-07-20T08:35:20;26.10;99.90
51035;DHT22;37062;52.546;13.230;2023-07-20T08:37:49;26.20;99.90
51035;DHT22;37062;52.546;13.230;2023-07-20T08:40:17;26.30;99.90
51035;DHT22;37062;52.546;13.230;2023-07-20T08:42:46;26.50;99.90
51035;DHT22;37062;52.546;13.230;2023-07-20T08:45:16;26.50;99.90
51035;DHT22;37062;52.546;13.230;2023-07-20T08:47:45;26.60;99.90
51035;DHT22;37062;52.546;13.230;2023-07-20T08:50:16;27.10;99.90
51035;DHT22;37062;52.546;13.230;2023-07-20T08:52:45;27.70;99.90
51035;DHT22;37062;52.546;13.230;2023-07-20T08:55:13;28.20;99.90
51035;DHT22;37062;52.546;13.230;2023-07-20T08:57:44;28.40;99.90
51035;DHT22;37062;52.546;13.230;2023-07-20T09:00:15;28.30;99.90
51035;DHT22;37062;52.546;13.230;2023-07-20T09:02:45;28.40;99.90
51035;DHT22;37062;52.546;13.230;2023-07-20T09:05:16;28.60;99.90
51035;DHT22;37062;52.546;13.230;2023-07-20T09:07:44;28.90;99.90
51035;DHT22;37062;52.546;13.230;2023-07-20T09:10:13;29.30;99.90
51035;DHT22;37062;52.546;13.230;2023-07-20T09:12:43;29.50;99.90
51035;DHT22;37062;52.546;13.230;2023-07-20T09:15:12;29.40;99.90
51035;DHT22;37062;52.546;13.230;2023-07-20T09:17:45;29.30;99.90
51035;DHT22;37062;52.546;13.230;2023-07-20T09:20:17;29.20;99.90
51035;DHT22;37062;52.546;13.230;2023-07-20T09:22:50;28.90;99.90
51035;DHT22;37062;52.546;13.230;2023-07-20T09:25:20;28.50;99.90
51035;DHT22;37062;52.546;13.230;2023-07-20T09:27:51;28.20;99.90
51035;DHT22;37062;52.546;13.230;2023-07-20T09:30:25;27.60;99.90
51035;DHT22;37062;52.546;13.230;2023-07-20T09:32:56;27.20;99.90
51035;DHT22;37062;52.546;13.230;2023-07-20T09:35:27;26.80;99.90
51035;DHT22;37062;52.546;13.230;2023-07-20T09:38:09;26.30;99.90
51035;DHT22;37062;52.546;13.230;2023-07-20T09:40:40;25.90;99.90
51035;DHT22;37062;52.546;13.230;2023-07-20T09:43:11;25.60;99.90
51035;DHT22;37062;52.546;13.230;2023-07-20T09:45:43;25.10;99.90
51035;DHT22;37062;52.546;13.230;2023-07-20T09:48:14;24.70;99.90
51035;DHT22;37062;52.546;13.230;2023-07-20T09:50:50;24.40;99.90
51035;DHT22;37062;52.546;13.230;2023-07-20T09:53:20;24.30;99.90
51035;DHT22;37062;52.546;13.230;2023-07-20T09:55:48;24.20;99.90
51035;DHT22;37062;52.546;13.230;2023-07-20T09:58:17;24.00;99.90
51035;DHT22;37062;52.546;13.230;2023-07-20T10:00:46;23.90;99.90
51035;DHT22;37062;52.546;13.230;2023-07-20T10:03:21;23.90;99.90
51035;DHT22;37062;52.546;13.230;2023-07-20T10:06:02;23.90;99.90
51035;DHT22;37062;52.546;13.230;2023-07-20T10:08:32;23.80;99.90
51035;DHT22;37062;52.546;13.230;2023-07-20T10:11:07;23.70;99.90
51035;DHT22;37062;52.546;13.230;2023-07-20T10:13:38;23.50;99.90
51035;DHT22;37062;52.546;13.230;2023-07-20T10:16:10;23.50;99.90
51035;DHT22;37062;52.546;13.230;2023-07-20T10:18:46;23.60;99.90
51035;DHT22;37062;52.546;13.230;2023-07-20T10:21:20;23.70;99.90
51035;DHT22;37062;52.546;13.230;2023-07-20T10:23:53;23.60;99.90
51035;DHT22;37062;52.546;13.230;2023-07-20T10:26:25;23.50;99.90
51035;DHT22;37062;52.546;13.230;2023-07-20T10:28:54;23.50;99.90
51035;DHT22;37062;52.546;13.230;2023-07-20T10:31:23;23.50;99.90
51035;DHT22;37062;52.546;13.230;2023-07-20T10:33:52;23.50;99.90
51035;DHT22;37062;52.546;13.230;2023-07-20T10:36:26;23.50;99.90
51035;DHT22;37062;52.546;13.230;2023-07-20T10:38:58;23.70;99.90
51035;DHT22;37062;52.546;13.230;2023-07-20T10:41:29;23.90;99.90
51035;DHT22;37062;52.546;13.230;2023-07-20T10:43:58;24.20;99.90
51035;DHT22;37062;52.546;13.230;2023-07-20T10:46:44;24.40;99.90
51035;DHT22;37062;52.546;13.230;2023-07-20T10:49:14;24.60;99.90
51035;DHT22;37062;52.546;13.230;2023-07-20T10:51:45;24.70;99.90
51035;DHT22;37062;52.546;13.230;2023-07-20T10:54:33;24.80;99.90
51035;DHT22;37062;52.546;13.230;2023-07-20T10:57:21;24.80;99.90
51035;DHT22;37062;52.546;13.230;2023-07-20T10:59:50;24.80;99.90
51035;DHT22;37062;52.546;13.230;2023-07-20T11:02:18;24.90;99.90
51035;DHT22;37062;52.546;13.230;2023-07-20T11:04:48;25.10;99.90
51035;DHT22;37062;52.546;13.230;2023-07-20T11:07:36;25.10;99.90
51035;DHT22;37062;52.546;13.230;2023-07-20T11:10:15;25.20;99.90
51035;DHT22;37062;52.546;13.230;2023-07-20T11:13:16;25.30;99.90
51035;DHT22;37062;52.546;13.230;2023-07-20T11:15:45;25.30;99.90
51035;DHT22;37062;52.546;13.230;2023-07-20T11:18:14;25.30;99.90
51035;DHT22;37062;52.546;13.230;2023-07-20T11:20:43;25.40;99.90
51035;DHT22;37062;52.546;13.230;2023-07-20T11:23:13;25.40;99.90
51035;DHT22;37062;52.546;13.230;2023-07-20T11:25:41;25.50;99.90
51035;DHT22;37062;52.546;13.230;2023-07-20T11:28:09;25.50;99.90
51035;DHT22;37062;52.546;13.230;2023-07-20T11:30:38;25.50;99.90
51035;DHT22;37062;52.546;13.230;2023-07-20T11:33:09;25.50;99.90
51035;DHT22;37062;52.546;13.230;2023-07-20T11:35:42;25.40;99.90
51035;DHT22;37062;52.546;13.230;2023-07-20T11:38:13;25.40;99.90
51035;DHT22;37062;52.546;13.230;2023-07-20T11:40:43;25.40;99.90
51035;DHT22;37062;52.546;13.230;2023-07-20T11:43:12;25.40;99.90
51035;DHT22;37062;52.546;13.230;2023-07-20T11:45:44;25.30;99.90
51035;DHT22;37062;52.546;13.230;2023-07-20T11:48:15;25.40;99.90
51035;DHT22;37062;52.546;13.230;2023-07-20T11:50:44;25.30;99.90
51035;DHT22;37062;52.546;13.230;2023-07-20T11:53:14;25.20;99.90
51035;DHT22;37062;52.546;13.230;2023-07-20T11:55:42;25.00;99.90
51035;DHT22;37062;52.546;13.230;2023-07-20T11:58:11;24.80;99.90
51035;DHT22;37062;52.546;13.230;2023-07-20T12:00:39;24.70;99.90
51035;DHT22;37062;52.546;13.230;2023-07-20T12:03:09;24.50;99.90
51035;DHT22;37062;52.546;13.230;2023-07-20T12:05:39;24.30;99.90
51035;DHT22;37062;52.546;13.230;2023-07-20T12:08:28;24.20;99.90
51035;DHT22;37062;52.546;13.230;2023-07-20T12:10:56;24.20;99.90
51035;DHT22;37062;52.546;13.230;2023-07-20T12:13:34;24.30;99.90
51035;DHT22;37062;52.546;13.230;2023-07-20T12:16:08;24.40;99.90
51035;DHT22;37062;52.546;13.230;2023-07-20T12:18:37;24.60;99.90
51035;DHT22;37062;52.546;13.230;2023-07-20T12:21:06;24.60;99.90
51035;DHT22;37062;52.546;13.230;2023-07-20T12:23:37;24.60;99.90
51035;DHT22;37062;52.546;13.230;2023-07-20T12:26:07;24.60;99.90
51035;DHT22;37062;52.546;13.230;2023-07-20T12:28:39;24.60;99.90
51035;DHT22;37062;52.546;13.230;2023-07-20T12:31:08;24.60;99.90
51035;DHT22;37062;52.546;13.230;2023-07-20T12:33:37;24.60;99.90
51035;DHT22;37062;52.546;13.230;2023-07-20T12:36:06;24.60;99.90
51035;DHT22;37062;52.546;13.230;2023-07-20T12:38:35;24.70;99.90
51035;DHT22;37062;52.546;13.230;2023-07-20T12:41:04;24.70;99.90
51035;DHT22;37062;52.546;13.230;2023-07-20T12:43:32;24.60;99.90
51035;DHT22;37062;52.546;13.230;2023-07-20T12:46:00;24.60;99.90
51035;DHT22;37062;52.546;13.230;2023-07-20T12:48:29;24.50;99.90
51035;DHT22;37062;52.546;13.230;2023-07-20T12:50:57;24.50;99.90
51035;DHT22;37062;52.546;13.230;2023-07-20T12:53:25;24.50;99.90
51035;DHT22;37062;52.546;13.230;2023-07-20T12:55:55;24.40;99.90
51035;DHT22;37062;52.546;13.230;2023-07-20T12:58:23;24.40;99.90
51035;DHT22;37062;52.546;13.230;2023-07-20T13:00:51;24.50;99.90
51035;DHT22;37062;52.546;13.230;2023-07-20T13:03:20;24.40;99.90
51035;DHT22;37062;52.546;13.230;2023-07-20T13:05:51;24.30;99.90
51035;DHT22;37062;52.546;13.230;2023-07-20T13:08:22;24.30;99.90
51035;DHT22;37062;52.546;13.230;2023-07-20T13:10:52;24.40;99.90
51035;DHT22;37062;52.546;13.230;2023-07-20T13:13:22;24.40;99.90
51035;DHT22;37062;52.546;13.230;2023-07-20T13:15:50;24.50;99.90
51035;DHT22;37062;52.546;13.230;2023-07-20T13:18:18;24.50;99.90
51035;DHT22;37062;52.546;13.230;2023-07-20T13:20:47;24.60;99.90
51035;DHT22;37062;52.546;13.230;2023-07-20T13:23:15;24.40;99.90
51035;DHT22;37062;52.546;13.230;2023-07-20T13:25:43;24.40;99.90
51035;DHT22;37062;52.546;13.230;2023-07-20T13:28:11;24.30;99.90
51035;DHT22;37062;52.546;13.230;2023-07-20T13:30:41;24.20;99.90
51035;DHT22;37062;52.546;13.230;2023-07-20T13:33:11;24.20;99.90
51035;DHT22;37062;52.546;13.230;2023-07-20T13:35:44;24.20;99.90
51035;DHT22;37062;52.546;13.230;2023-07-20T13:38:15;24.20;99.90
51035;DHT22;37062;52.546;13.230;2023-07-20T13:40:44;24.30;99.90
51035;DHT22;37062;52.546;13.230;2023-07-20T13:43:12;24.40;99.90
51035;DHT22;37062;52.546;13.230;2023-07-20T13:45:42;24.40;99.90
51035;DHT22;37062;52.546;13.230;2023-07-20T13:48:10;24.60;99.90
51035;DHT22;37062;52.546;13.230;2023-07-20T13:50:43;24.60;99.90
51035;DHT22;37062;52.546;13.230;2023-07-20T13:53:25;24.70;99.90
51035;DHT22;37062;52.546;13.230;2023-07-20T13:55:57;24.70;99.90
51035;DHT22;37062;52.546;13.230;2023-07-20T13:58:28;24.80;99.90
51035;DHT22;37062;52.546;13.230;2023-07-20T14:00:59;24.80;99.90
51035;DHT22;37062;52.546;13.230;2023-07-20T14:03:27;24.70;99.90
51035;DHT22;37062;52.546;13.230;2023-07-20T14:05:56;24.70;99.90
51035;DHT22;37062;52.546;13.230;2023-07-20T14:08:27;24.80;99.90
51035;DHT22;37062;52.546;13.230;2023-07-20T14:10:57;24.70;99.90
51035;DHT22;37062;52.546;13.230;2023-07-20T14:13:28;24.80;99.90
51035;DHT22;37062;52.546;13.230;2023-07-20T14:16:14;24.90;99.90
51035;DHT22;37062;52.546;13.230;2023-07-20T14:18:42;25.00;99.90
51035;DHT22;37062;52.546;13.230;2023-07-20T14:21:16;25.00;99.90
51035;DHT22;37062;52.546;13.230;2023-07-20T14:23:45;25.10;99.90
51035;DHT22;37062;52.546;13.230;2023-07-20T14:26:14;25.10;99.90
51035;DHT22;37062;52.546;13.230;2023-07-20T14:28:42;25.00;99.90
51035;DHT22;37062;52.546;13.230;2023-07-20T14:31:10;25.00;99.90
51035;DHT22;37062;52.546;13.230;2023-07-20T14:33:40;24.90;99.90
51035;DHT22;37062;52.546;13.230;2023-07-20T14:36:09;24.90;99.90
51035;DHT22;37062;52.546;13.230;2023-07-20T14:38:37;24.80;99.90
51035;DHT22;37062;52.546;13.230;2023-07-20T14:41:07;24.90;99.90
51035;DHT22;37062;52.546;13.230;2023-07-20T14:43:35;24.80;99.90
51035;DHT22;37062;52.546;13.230;2023-07-20T14:46:03;24.80;99.90
51035;DHT22;37062;52.546;13.230;2023-07-20T14:48:31;24.90;99.90
51035;DHT22;37062;52.546;13.230;2023-07-20T14:51:01;24.80;99.90
51035;DHT22;37062;52.546;13.230;2023-07-20T14:53:31;24.60;99.90
51035;DHT22;37062;52.546;13.230;2023-07-20T14:56:03;24.40;99.90
51035;DHT22;37062;52.546;13.230;2023-07-20T14:58:31;24.40;99.90
51035;DHT22;37062;52.546;13.230;2023-07-20T15:01:02;24.50;99.90
51035;DHT22;37062;52.546;13.230;2023-07-20T15:03:31;24.50;99.90
51035;DHT22;37062;52.546;13.230;2023-07-20T15:06:01;24.50;99.90
51035;DHT22;37062;52.546;13.230;2023-07-20T15:08:30;24.50;99.90
51035;DHT22;37062;52.546;13.230;2023-07-20T15:10:59;24.60;99.90
51035;DHT22;37062;52.546;13.230;2023-07-20T15:13:27;24.70;99.90
51035;DHT22;37062;52.546;13.230;2023-07-20T15:15:56;24.80;99.90
51035;DHT22;37062;52.546;13.230;2023-07-20T15:18:25;24.80;99.90
51035;DHT22;37062;52.546;13.230;2023-07-20T15:21:14;24.80;99.90
51035;DHT22;37062;52.546;13.230;2023-07-20T15:23:42;24.80;99.90
51035;DHT22;37062;52.546;13.230;2023-07-20T15:26:11;24.70;99.90
51035;DHT22;37062;52.546;13.230;2023-07-20T15:28:40;24.60;99.90
51035;DHT22;37062;52.546;13.230;2023-07-20T15:31:08;24.80;99.90
51035;DHT22;37062;52.546;13.230;2023-07-20T15:33:37;24.90;99.90
51035;DHT22;37062;52.546;13.230;2023-07-20T15:36:05;25.00;99.90
51035;DHT22;37062;52.546;13.230;2023-07-20T15:38:35;25.00;99.90
51035;DHT22;37062;52.546;13.230;2023-07-20T15:41:03;24.90;99.90
51035;DHT22;37062;52.546;13.230;2023-07-20T15:43:31;24.90;99.90